sensor_id;sensor_type;location;lat;lon;timestamp;temperature;humidity
52513;DHT22;38422;53.172;6.974;2023-02-03T00:01:06;8.10;99.90
52513;DHT22;38422;53.172;6.974;2023-02-03T00:03:31;8.10;99.90
52513;DHT22;38422;53.172;6.974;2023-02-03T00:05:57;8.10;99.90
52513;DHT22;38422;53.172;6.974;2023-02-03T00:08:24;8.10;99.90
52513;DHT22;38422;53.172;6.974;2023-02-03T00:10:50;8.10;99.90
52513;DHT22;38422;53.172;6.974;2023-02-03T00:13:16;8.10;99.90
52513;DHT22;38422;53.172;6.974;2023-02-03T00:15:41;8.10;99.90
52513;DHT22;38422;53.172;6.974;2023-02-03T00:18:07;8.10;99.90
52513;DHT22;38422;53.172;6.974;2023-02-03T00:20:33;8.20;99.90
52513;DHT22;38422;53.172;6.974;2023-02-03T00:23:05;8.10;99.90
52513;DHT22;38422;53.172;6.974;2023-02-03T00:25:31;8.20;99.90
52513;DHT22;38422;53.172;6.974;2023-02-03T00:27:57;8.20;99.90
52513;DHT22;38422;53.172;6.974;2023-02-03T00:30:23;8.10;99.90
52513;DHT22;38422;53.172;6.974;2023-02-03T00:32:49;8.10;99.90
52513;DHT22;38422;53.172;6.974;2023-02-03T00:35:14;8.20;99.90
52513;DHT22;38422;53.172;6.974;2023-02-03T00:37:40;8.10;99.90
52513;DHT22;38422;53.172;6.974;2023-02-03T00:40:06;8.20;99.90
52513;DHT22;38422;53.172;6.974;2023-02-03T00:42:34;8.20;99.90
52513;DHT22;38422;53.172;6.974;2023-02-03T00:45:00;8.20;99.90
52513;DHT22;38422;53.172;6.974;2023-02-03T00:47:26;8.20;99.90
52513;DHT22;38422;53.172;6.974;2023-02-03T00:49:51;8.20;99.90
52513;DHT22;38422;53.172;6.974;2023-02-03T00:52:17;8.20;99.90
52513;DHT22;38422;53.172;6.974;2023-02-03T00:54:43;8.20;99.90
52513;DHT22;38422;53.172;6.974;2023-02-03T00:57:08;8.20;99.90
52513;DHT22;38422;53.172;6.974;2023-02-03T00:59:34;8.20;99.90
52513;DHT22;38422;53.172;6.974;2023-02-03T01:02:00;8.20;99.90
52513;DHT22;38422;53.172;6.974;2023-02-03T01:04:25;8.20;99.90
52513;DHT22;38422;53.172;6.974;2023-02-03T01:06:51;8.20;99.90
52513;DHT22;38422;53.172;6.974;2023-02-03T01:09:21;8.20;99.90
52513;DHT22;38422;53.172;6.974;2023-02-03T01:11:46;8.20;99.90
52513;DHT22;38422;53.172;6.974;2023-02-03T01:14:12;8.20;99.90
52513;DHT22;38422;53.172;6.974;2023-02-03T01:16:38;8.20;99.90
52513;DHT22;38422;53.172;6.974;2023-02-03T01:19:04;8.20;99.90
52513;DHT22;38422;53.172;6.974;2023-02-03T01:21:30;8.20;99.90
52513;DHT22;38422;53.172;6.974;2023-02-03T01:23:58;8.20;99.90
52513;DHT22;38422;53.172;6.974;2023-02-03T01:26:24;8.20;99.90
52513;DHT22;38422;53.172;6.974;2023-02-03T01:28:54;8.20;99.90
52513;DHT22;38422;53.172;6.974;2023-02-03T01:31:23;8.10;99.90
52513;DHT22;38422;53.172;6.974;2023-02-03T01:33:51;8.20;99.90
52513;DHT22;38422;53.172;6.974;2023-02-03T01:36:17;8.20;99.90
52513;DHT22;38422;53.172;6.974;2023-02-03T01:38:43;8.20;99.90
52513;DHT22;38422;53.172;6.974;2023-02-03T01:41:13;8.10;99.90
52513;DHT22;38422;53.172;6.974;2023-02-03T01:43:45;8.10;99.90
52513;DHT22;38422;53.172;6.974;2023-02-03T01:46:46;8.10;99.90
52513;DHT22;38422;53.172;6.974;2023-02-03T01:49:26;8.10;99.90
52513;DHT22;38422;53.172;6.974;2023-02-03T01:51:52;8.10;99.90
52513;DHT22;38422;53.172;6.974;2023-02-03T01:54:23;8.20;99.90
52513;DHT22;38422;53.172;6.974;2023-02-03T01:56:53;8.20;99.90
52513;DHT22;38422;53.172;6.974;2023-02-03T01:59:21;8.20;99.90
52513;DHT22;38422;53.172;6.974;2023-02-03T02:01:48;8.20;99.90
52513;DHT22;38422;53.172;6.974;2023-02-03T02:04:15;8.20;99.90
52513;DHT22;38422;53.172;6.974;2023-02-03T02:06:41;8.20;99.90
52513;DHT22;38422;53.172;6.974;2023-02-03T02:09:07;8.20;99.90
52513;DHT22;38422;53.172;6.974;2023-02-03T02:11:33;8.20;99.90
52513;DHT22;38422;53.172;6.974;2023-02-03T02:14:01;8.20;99.90
52513;DHT22;38422;53.172;6.974;2023-02-03T02:22:28;8.20;99.90
52513;DHT22;38422;53.172;6.974;2023-02-03T02:27:42;8.20;99.90
52513;DHT22;38422;53.172;6.974;2023-02-03T02:33:17;8.20;99.90
52513;DHT22;38422;53.172;6.974;2023-02-03T02:35:57;8.20;99.90
52513;DHT22;38422;53.172;6.974;2023-02-03T02:41:18;8.20;99.90
52513;DHT22;38422;53.172;6.974;2023-02-03T02:44:30;8.20;99.90
52513;DHT22;38422;53.172;6.974;2023-02-03T02:47:01;8.30;99.90
52513;DHT22;38422;53.172;6.974;2023-02-03T02:49:34;8.30;99.90
52513;DHT22;38422;53.172;6.974;2023-02-03T02:52:04;8.30;99.90
52513;DHT22;38422;53.172;6.974;2023-02-03T02:54:32;8.30;99.90
52513;DHT22;38422;53.172;6.974;2023-02-03T02:57:03;8.30;99.90
52513;DHT22;38422;53.172;6.974;2023-02-03T02:59:30;8.30;99.90
52513;DHT22;38422;53.172;6.974;2023-02-03T03:01:56;8.30;99.90
52513;DHT22;38422;53.172;6.974;2023-02-03T03:04:25;8.20;99.90
52513;DHT22;38422;53.172;6.974;2023-02-03T03:06:59;8.30;99.90
52513;DHT22;38422;53.172;6.974;2023-02-03T03:09:37;8.30;99.90
52513;DHT22;38422;53.172;6.974;2023-02-03T03:12:12;8.30;99.90
52513;DHT22;38422;53.172;6.974;2023-02-03T03:14:43;8.30;99.90
52513;DHT22;38422;53.172;6.974;2023-02-03T03:17:12;8.30;99.90
52513;DHT22;38422;53.172;6.974;2023-02-03T03:19:45;8.30;99.90
52513;DHT22;38422;53.172;6.974;2023-02-03T03:22:14;8.30;99.90
52513;DHT22;38422;53.172;6.974;2023-02-03T03:24:46;8.30;99.90
52513;DHT22;38422;53.172;6.974;2023-02-03T03:27:30;8.30;99.90
52513;DHT22;38422;53.172;6.974;2023-02-03T03:30:08;8.30;99.90
52513;DHT22;38422;53.172;6.974;2023-02-03T03:32:35;8.30;99.90
52513;DHT22;38422;53.172;6.974;2023-02-03T03:35:02;8.30;99.90
52513;DHT22;38422;53.172;6.974;2023-02-03T03:37:33;8.20;99.90
52513;DHT22;38422;53.172;6.974;2023-02-03T03:40:06;8.20;99.90
52513;DHT22;38422;53.172;6.974;2023-02-03T03:43:05;8.20;99.90
52513;DHT22;38422;53.172;6.974;2023-02-03T03:45:52;8.20;99.90
52513;DHT22;38422;53.172;6.974;2023-02-03T03:48:51;8.20;99.90
52513;DHT22;38422;53.172;6.974;2023-02-03T03:51:33;8.20;99.90
52513;DHT22;38422;53.172;6.974;2023-02-03T03:54:05;8.20;99.90
52513;DHT22;38422;53.172;6.974;2023-02-03T03:56:39;8.20;99.90
52513;DHT22;38422;53.172;6.974;2023-02-03T03:59:08;8.20;99.90
52513;DHT22;38422;53.172;6.974;2023-02-03T04:01:37;8.30;99.90
52513;DHT22;38422;53.172;6.974;2023-02-03T04:04:06;8.30;99.90
52513;DHT22;38422;53.172;6.974;2023-02-03T04:06:32;8.30;99.90
52513;DHT22;38422;53.172;6.974;2023-02-03T04:08:58;8.30;99.90
52513;DHT22;38422;53.172;6.974;2023-02-03T04:11:23;8.30;99.90
52513;DHT22;38422;53.172;6.974;2023-02-03T04:14:07;8.30;99.90
52513;DHT22;38422;53.172;6.974;2023-02-03T04:16:33;8.30;99.90
52513;DHT22;38422;53.172;6.974;2023-02-03T04:18:59;8.30;99.90
52513;DHT22;38422;53.172;6.974;2023-02-03T04:21:24;8.30;99.90
52513;DHT22;38422;53.172;6.974;2023-02-03T04:23:50;8.30;99.90
52513;DHT22;38422;53.172;6.974;2023-02-03T04:26:16;8.30;99.90
52513;DHT22;38422;53.172;6.974;2023-02-03T04:28:43;8.30;99.90
52513;DHT22;38422;53.172;6.974;2023-02-03T04:31:08;8.30;99.90
52513;DHT22;38422;53.172;6.974;2023-02-03T04:33:34;8.30;99.90
52513;DHT22;38422;53.172;6.974;2023-02-03T04:36:00;8.30;99.90
52513;DHT22;38422;53.172;6.974;2023-02-03T04:38:25;8.30;99.90
52513;DHT22;38422;53.172;6.974;2023-02-03T04:40:51;8.30;99.90
52513;DHT22;38422;53.172;6.974;2023-02-03T04:43:17;8.30;99.90
52513;DHT22;38422;53.172;6.974;2023-02-03T04:45:42;8.30;99.90
52513;DHT22;38422;53.172;6.974;2023-02-03T04:48:08;8.30;99.90
52513;DHT22;38422;53.172;6.974;2023-02-03T04:50:33;8.30;99.90
52513;DHT22;38422;53.172;6.974;2023-02-03T04:52:59;8.30;99.90
52513;DHT22;38422;53.172;6.974;2023-02-03T04:55:26;8.30;99.90
52513;DHT22;38422;53.172;6.974;2023-02-03T04:57:56;8.30;99.90
52513;DHT22;38422;53.172;6.974;2023-02-03T05:00:22;8.30;99.90
52513;DHT22;38422;53.172;6.974;2023-02-03T05:02:48;8.30;99.90
52513;DHT22;38422;53.172;6.974;2023-02-03T05:05:13;8.30;99.90
52513;DHT22;38422;53.172;6.974;2023-02-03T05:07:39;8.30;99.90
52513;DHT22;38422;53.172;6.974;2023-02-03T05:10:05;8.40;99.90
52513;DHT22;38422;53.172;6.974;2023-02-03T05:12:31;8.40;99.90
52513;DHT22;38422;53.172;6.974;2023-02-03T05:14:57;8.40;99.90
52513;DHT22;38422;53.172;6.974;2023-02-03T05:17:23;8.40;99.90
52513;DHT22;38422;53.172;6.974;2023-02-03T05:19:48;8.40;99.90
52513;DHT22;38422;53.172;6.974;2023-02-03T05:22:14;8.40;99.90
52513;DHT22;38422;53.172;6.974;2023-02-03T05:24:40;8.40;99.90
52513;DHT22;38422;53.172;6.974;2023-02-03T05:27:06;8.40;99.90
52513;DHT22;38422;53.172;6.974;2023-02-03T05:29:32;8.50;99.90
52513;DHT22;38422;53.172;6.974;2023-02-03T05:31:57;8.50;99.90
52513;DHT22;38422;53.172;6.974;2023-02-03T05:34:23;8.50;99.90
52513;DHT22;38422;53.172;6.974;2023-02-03T05:36:49;8.50;99.90
52513;DHT22;38422;53.172;6.974;2023-02-03T05:39:14;8.50;99.90
52513;DHT22;38422;53.172;6.974;2023-02-03T05:41:40;8.50;99.90
52513;DHT22;38422;53.172;6.974;2023-02-03T05:44:26;8.50;99.90
52513;DHT22;38422;53.172;6.974;2023-02-03T05:46:53;8.50;99.90
52513;DHT22;38422;53.172;6.974;2023-02-03T05:49:19;8.50;99.90
52513;DHT22;38422;53.172;6.974;2023-02-03T05:51:48;8.50;99.90
52513;DHT22;38422;53.172;6.974;2023-02-03T05:54:14;8.50;99.90
52513;DHT22;38422;53.172;6.974;2023-02-03T05:56:40;8.50;99.90
52513;DHT22;38422;53.172;6.974;2023-02-03T05:59:06;8.50;99.90
52513;DHT22;38422;53.172;6.974;2023-02-03T06:01:33;8.40;99.90
52513;DHT22;38422;53.172;6.974;2023-02-03T06:03:59;8.40;99.90
52513;DHT22;38422;53.172;6.974;2023-02-03T06:06:25;8.40;99.90
52513;DHT22;38422;53.172;6.974;2023-02-03T06:08:58;8.40;99.90
52513;DHT22;38422;53.172;6.974;2023-02-03T06:11:24;8.40;99.90
52513;DHT22;38422;53.172;6.974;2023-02-03T06:13:50;8.40;99.90
52513;DHT22;38422;53.172;6.974;2023-02-03T06:16:15;8.40;99.90
52513;DHT22;38422;53.172;6.974;2023-02-03T06:18:41;8.40;99.90
52513;DHT22;38422;53.172;6.974;2023-02-03T06:21:07;8.40;99.90
52513;DHT22;38422;53.172;6.974;2023-02-03T06:23:33;8.40;99.90
52513;DHT22;38422;53.172;6.974;2023-02-03T06:25:58;8.40;99.90
52513;DHT22;38422;53.172;6.974;2023-02-03T06:28:25;8.40;99.90
52513;DHT22;38422;53.172;6.974;2023-02-03T06:30:51;8.40;99.90
52513;DHT22;38422;53.172;6.974;2023-02-03T06:33:18;8.40;99.90
52513;DHT22;38422;53.172;6.974;2023-02-03T06:35:44;8.40;99.90
52513;DHT22;38422;53.172;6.974;2023-02-03T06:38:10;8.40;99.90
52513;DHT22;38422;53.172;6.974;2023-02-03T06:40:36;8.40;99.90
52513;DHT22;38422;53.172;6.974;2023-02-03T06:43:02;8.40;99.90
52513;DHT22;38422;53.172;6.974;2023-02-03T06:45:27;8.40;99.90
52513;DHT22;38422;53.172;6.974;2023-02-03T06:47:53;8.40;99.90
52513;DHT22;38422;53.172;6.974;2023-02-03T06:50:19;8.30;99.90
52513;DHT22;38422;53.172;6.974;2023-02-03T06:52:45;8.30;99.90
52513;DHT22;38422;53.172;6.974;2023-02-03T06:55:10;8.30;99.90
52513;DHT22;38422;53.172;6.974;2023-02-03T06:57:45;8.40;99.90
52513;DHT22;38422;53.172;6.974;2023-02-03T07:00:12;8.40;99.90
52513;DHT22;38422;53.172;6.974;2023-02-03T07:02:38;8.40;99.90
52513;DHT22;38422;53.172;6.974;2023-02-03T07:05:05;8.40;99.90
52513;DHT22;38422;53.172;6.974;2023-02-03T07:07:30;8.40;99.90
52513;DHT22;38422;53.172;6.974;2023-02-03T07:09:57;8.40;99.90
52513;DHT22;38422;53.172;6.974;2023-02-03T07:12:23;8.40;99.90
52513;DHT22;38422;53.172;6.974;2023-02-03T07:14:48;8.40;99.90
52513;DHT22;38422;53.172;6.974;2023-02-03T07:17:14;8.40;99.90
52513;DHT22;38422;53.172;6.974;2023-02-03T07:19:40;8.40;99.90
52513;DHT22;38422;53.172;6.974;2023-02-03T07:22:05;8.40;99.90
52513;DHT22;38422;53.172;6.974;2023-02-03T07:24:31;8.50;99.90
52513;DHT22;38422;53.172;6.974;2023-02-03T07:26:57;8.50;99.90
52513;DHT22;38422;53.172;6.974;2023-02-03T07:29:22;8.50;99.90
52513;DHT22;38422;53.172;6.974;2023-02-03T07:31:48;8.50;99.90
52513;DHT22;38422;53.172;6.974;2023-02-03T07:34:14;8.50;99.90
52513;DHT22;38422;53.172;6.974;2023-02-03T07:36:39;8.60;99.90
52513;DHT22;38422;53.172;6.974;2023-02-03T07:39:05;8.60;99.90
52513;DHT22;38422;53.172;6.974;2023-02-03T07:41:31;8.60;99.90
52513;DHT22;38422;53.172;6.974;2023-02-03T07:43:57;8.60;99.90
52513;DHT22;38422;53.172;6.974;2023-02-03T07:46:23;8.70;99.90
52513;DHT22;38422;53.172;6.974;2023-02-03T07:48:48;8.70;99.90
52513;DHT22;38422;53.172;6.974;2023-02-03T07:51:14;8.70;99.90
52513;DHT22;38422;53.172;6.974;2023-02-03T07:53:40;8.80;99.90
52513;DHT22;38422;53.172;6.974;2023-02-03T07:56:05;8.80;99.90
52513;DHT22;38422;53.172;6.974;2023-02-03T07:58:32;8.80;99.90
52513;DHT22;38422;53.172;6.974;2023-02-03T08:00:58;8.70;99.90
52513;DHT22;38422;53.172;6.974;2023-02-03T08:03:24;8.80;99.90
52513;DHT22;38422;53.172;6.974;2023-02-03T08:05:50;8.80;99.90
52513;DHT22;38422;53.172;6.974;2023-02-03T08:08:17;8.70;99.90
52513;DHT22;38422;53.172;6.974;2023-02-03T08:10:43;8.70;99.90
52513;DHT22;38422;53.172;6.974;2023-02-03T08:13:08;8.70;99.90
52513;DHT22;38422;53.172;6.974;2023-02-03T08:15:34;8.70;99.90
52513;DHT22;38422;53.172;6.974;2023-02-03T08:18:01;8.80;99.90
52513;DHT22;38422;53.172;6.974;2023-02-03T08:20:26;8.70;99.90
52513;DHT22;38422;53.172;6.974;2023-02-03T08:22:52;8.70;99.90
52513;DHT22;38422;53.172;6.974;2023-02-03T08:25:18;8.80;99.90
52513;DHT22;38422;53.172;6.974;2023-02-03T08:27:43;8.70;99.90
52513;DHT22;38422;53.172;6.974;2023-02-03T08:30:12;8.70;99.90
52513;DHT22;38422;53.172;6.974;2023-02-03T08:32:38;8.80;99.90
52513;DHT22;38422;53.172;6.974;2023-02-03T08:35:05;8.80;99.90
52513;DHT22;38422;53.172;6.974;2023-02-03T08:37:32;8.80;99.90
52513;DHT22;38422;53.172;6.974;2023-02-03T08:39:59;8.80;99.90
52513;DHT22;38422;53.172;6.974;2023-02-03T08:42:24;8.80;99.90
52513;DHT22;38422;53.172;6.974;2023-02-03T08:44:50;8.80;99.90
52513;DHT22;38422;53.172;6.974;2023-02-03T08:47:16;8.80;99.90
52513;DHT22;38422;53.172;6.974;2023-02-03T08:49:42;8.80;99.90
52513;DHT22;38422;53.172;6.974;2023-02-03T08:52:10;8.80;99.90
52513;DHT22;38422;53.172;6.974;2023-02-03T08:54:36;8.80;99.90
52513;DHT22;38422;53.172;6.974;2023-02-03T08:57:02;8.90;99.90
52513;DHT22;38422;53.172;6.974;2023-02-03T08:59:28;8.90;99.90
52513;DHT22;38422;53.172;6.974;2023-02-03T09:01:55;8.90;99.90
52513;DHT22;38422;53.172;6.974;2023-02-03T09:04:24;8.90;99.90
52513;DHT22;38422;53.172;6.974;2023-02-03T09:06:51;8.90;99.90
52513;DHT22;38422;53.172;6.974;2023-02-03T09:09:19;9.00;99.90
52513;DHT22;38422;53.172;6.974;2023-02-03T09:11:45;9.00;99.90
52513;DHT22;38422;53.172;6.974;2023-02-03T09:14:10;9.00;99.90
52513;DHT22;38422;53.172;6.974;2023-02-03T09:16:36;9.00;99.90
52513;DHT22;38422;53.172;6.974;2023-02-03T09:19:02;9.00;99.90
52513;DHT22;38422;53.172;6.974;2023-02-03T09:21:28;9.00;99.90
52513;DHT22;38422;53.172;6.974;2023-02-03T09:23:53;9.00;99.90
52513;DHT22;38422;53.172;6.974;2023-02-03T09:26:19;9.00;99.90
52513;DHT22;38422;53.172;6.974;2023-02-03T09:28:45;9.00;99.90
52513;DHT22;38422;53.172;6.974;2023-02-03T09:31:16;9.00;99.90
52513;DHT22;38422;53.172;6.974;2023-02-03T09:33:42;9.00;99.90
52513;DHT22;38422;53.172;6.974;2023-02-03T09:36:09;9.00;99.90
52513;DHT22;38422;53.172;6.974;2023-02-03T09:38:35;9.00;99.90
52513;DHT22;38422;53.172;6.974;2023-02-03T09:46:34;9.10;99.90
52513;DHT22;38422;53.172;6.974;2023-02-03T09:49:17;9.20;99.90
52513;DHT22;38422;53.172;6.974;2023-02-03T09:51:47;9.20;99.90
52513;DHT22;38422;53.172;6.974;2023-02-03T09:57:06;9.20;99.90
52513;DHT22;38422;53.172;6.974;2023-02-03T09:59:38;9.30;99.90
52513;DHT22;38422;53.172;6.974;2023-02-03T10:02:23;9.30;99.90
52513;DHT22;38422;53.172;6.974;2023-02-03T10:18:32;9.40;99.90
52513;DHT22;38422;53.172;6.974;2023-02-03T10:21:03;9.40;99.90
52513;DHT22;38422;53.172;6.974;2023-02-03T10:23:38;9.40;99.90
52513;DHT22;38422;53.172;6.974;2023-02-03T10:26:07;9.40;99.90
52513;DHT22;38422;53.172;6.974;2023-02-03T10:28:40;9.50;99.90
52513;DHT22;38422;53.172;6.974;2023-02-03T10:31:25;9.50;99.90
52513;DHT22;38422;53.172;6.974;2023-02-03T10:33:59;9.60;99.90
52513;DHT22;38422;53.172;6.974;2023-02-03T10:36:58;9.70;99.90
52513;DHT22;38422;53.172;6.974;2023-02-03T10:42:02;9.90;99.90
52513;DHT22;38422;53.172;6.974;2023-02-03T10:49:54;10.00;99.90
52513;DHT22;38422;53.172;6.974;2023-02-03T10:52:39;10.00;99.90
52513;DHT22;38422;53.172;6.974;2023-02-03T10:55:06;10.20;99.90
52513;DHT22;38422;53.172;6.974;2023-02-03T10:57:35;10.20;99.90
52513;DHT22;38422;53.172;6.974;2023-02-03T11:00:18;10.30;99.90
52513;DHT22;38422;53.172;6.974;2023-02-03T11:02:54;10.30;99.90
52513;DHT22;38422;53.172;6.974;2023-02-03T11:05:22;10.40;99.90
52513;DHT22;38422;53.172;6.974;2023-02-03T11:07:50;10.40;99.90
52513;DHT22;38422;53.172;6.974;2023-02-03T11:18:52;10.60;99.90
52513;DHT22;38422;53.172;6.974;2023-02-03T11:21:28;10.70;99.90
52513;DHT22;38422;53.172;6.974;2023-02-03T11:24:07;10.80;99.90
52513;DHT22;38422;53.172;6.974;2023-02-03T11:26:47;10.80;99.90
52513;DHT22;38422;53.172;6.974;2023-02-03T11:29:28;10.80;99.90
52513;DHT22;38422;53.172;6.974;2023-02-03T11:31:59;10.80;99.90
52513;DHT22;38422;53.172;6.974;2023-02-03T11:34:31;10.80;99.90
52513;DHT22;38422;53.172;6.974;2023-02-03T11:37:37;10.80;99.90
52513;DHT22;38422;53.172;6.974;2023-02-03T11:42:33;10.90;99.90
52513;DHT22;38422;53.172;6.974;2023-02-03T11:45:26;11.00;99.90
52513;DHT22;38422;53.172;6.974;2023-02-03T11:48:21;11.10;99.90
52513;DHT22;38422;53.172;6.974;2023-02-03T11:51:17;11.00;99.90
52513;DHT22;38422;53.172;6.974;2023-02-03T11:53:56;11.10;99.90
52513;DHT22;38422;53.172;6.974;2023-02-03T11:57:06;11.10;99.90
52513;DHT22;38422;53.172;6.974;2023-02-03T12:00:17;11.00;99.90
52513;DHT22;38422;53.172;6.974;2023-02-03T12:06:02;11.10;99.90
52513;DHT22;38422;53.172;6.974;2023-02-03T12:19:16;10.90;99.90
52513;DHT22;38422;53.172;6.974;2023-02-03T12:24:58;10.70;99.90
52513;DHT22;38422;53.172;6.974;2023-02-03T12:27:48;10.50;99.90
52513;DHT22;38422;53.172;6.974;2023-02-03T12:30:26;10.40;99.90
52513;DHT22;38422;53.172;6.974;2023-02-03T12:33:00;10.40;99.90
52513;DHT22;38422;53.172;6.974;2023-02-03T12:35:45;10.30;99.90
52513;DHT22;38422;53.172;6.974;2023-02-03T12:41:25;10.20;99.90
52513;DHT22;38422;53.172;6.974;2023-02-03T12:43:59;10.20;99.90
52513;DHT22;38422;53.172;6.974;2023-02-03T12:46:41;10.20;99.90
52513;DHT22;38422;53.172;6.974;2023-02-03T12:52:00;10.20;99.90
52513;DHT22;38422;53.172;6.974;2023-02-03T12:54:42;10.30;99.90
52513;DHT22;38422;53.172;6.974;2023-02-03T12:57:35;10.50;99.90
52513;DHT22;38422;53.172;6.974;2023-02-03T13:02:57;10.70;99.90
52513;DHT22;38422;53.172;6.974;2023-02-03T13:05:31;10.70;99.90
52513;DHT22;38422;53.172;6.974;2023-02-03T13:10:50;10.50;99.90
52513;DHT22;38422;53.172;6.974;2023-02-03T13:13:25;10.50;99.90
52513;DHT22;38422;53.172;6.974;2023-02-03T13:15:54;10.40;99.90
52513;DHT22;38422;53.172;6.974;2023-02-03T13:18:37;10.30;99.90
52513;DHT22;38422;53.172;6.974;2023-02-03T13:21:03;10.20;99.90
52513;DHT22;38422;53.172;6.974;2023-02-03T13:23:29;10.10;99.90
52513;DHT22;38422;53.172;6.974;2023-02-03T13:28:59;10.00;99.90
52513;DHT22;38422;53.172;6.974;2023-02-03T13:44:46;9.90;99.90
52513;DHT22;38422;53.172;6.974;2023-02-03T13:47:22;9.80;99.90
52513;DHT22;38422;53.172;6.974;2023-02-03T13:49:53;9.80;99.90
52513;DHT22;38422;53.172;6.974;2023-02-03T13:52:34;9.70;99.90
52513;DHT22;38422;53.172;6.974;2023-02-03T13:55:01;9.70;99.90
52513;DHT22;38422;53.172;6.974;2023-02-03T13:57:33;9.60;99.90
52513;DHT22;38422;53.172;6.974;2023-02-03T14:00:01;9.60;99.90
52513;DHT22;38422;53.172;6.974;2023-02-03T14:02:29;9.60;99.90
52513;DHT22;38422;53.172;6.974;2023-02-03T14:04:58;9.60;99.90
52513;DHT22;38422;53.172;6.974;2023-02-03T14:10:14;9.50;99.90
52513;DHT22;38422;53.172;6.974;2023-02-03T14:25:47;9.40;99.90
52513;DHT22;38422;53.172;6.974;2023-02-03T14:28:18;9.30;99.90
52513;DHT22;38422;53.172;6.974;2023-02-03T14:31:00;9.30;99.90
52513;DHT22;38422;53.172;6.974;2023-02-03T14:36:34;9.30;99.90
52513;DHT22;38422;53.172;6.974;2023-02-03T14:42:08;9.30;99.90
52513;DHT22;38422;53.172;6.974;2023-02-03T14:45:13;9.30;99.90
52513;DHT22;38422;53.172;6.974;2023-02-03T14:50:16;9.20;99.90
52513;DHT22;38422;53.172;6.974;2023-02-03T14:56:02;9.10;99.90
52513;DHT22;38422;53.172;6.974;2023-02-03T14:58:27;9.00;99.90
52513;DHT22;38422;53.172;6.974;2023-02-03T15:00:54;9.00;99.90
52513;DHT22;38422;53.172;6.974;2023-02-03T15:03:22;9.00;99.90
52513;DHT22;38422;53.172;6.974;2023-02-03T15:05:53;9.00;99.90
52513;DHT22;38422;53.172;6.974;2023-02-03T15:08:32;8.90;99.90
52513;DHT22;38422;53.172;6.974;2023-02-03T15:10:59;8.90;99.90
52513;DHT22;38422;53.172;6.974;2023-02-03T15:13:31;8.80;99.90
52513;DHT22;38422;53.172;6.974;2023-02-03T15:16:00;8.80;99.90
52513;DHT22;38422;53.172;6.974;2023-02-03T15:18:35;8.80;99.90
52513;DHT22;38422;53.172;6.974;2023-02-03T15:21:02;8.70;99.90
52513;DHT22;38422;53.172;6.974;2023-02-03T15:23:35;8.60;99.90
52513;DHT22;38422;53.172;6.974;2023-02-03T15:26:13;8.60;99.90
52513;DHT22;38422;53.172;6.974;2023-02-03T15:28:40;8.60;99.90
52513;DHT22;38422;53.172;6.974;2023-02-03T15:31:18;8.50;99.90
52513;DHT22;38422;53.172;6.974;2023-02-03T15:33:45;8.50;99.90
52513;DHT22;38422;53.172;6.974;2023-02-03T15:36:14;8.40;99.90
52513;DHT22;38422;53.172;6.974;2023-02-03T15:38:47;8.40;99.90
52513;DHT22;38422;53.172;6.974;2023-02-03T15:41:24;8.40;99.90
52513;DHT22;38422;53.172;6.974;2023-02-03T15:44:01;8.30;99.90
52513;DHT22;38422;53.172;6.974;2023-02-03T15:46:36;8.30;99.90
52513;DHT22;38422;53.172;6.974;2023-02-03T15:49:31;8.30;99.90
52513;DHT22;38422;53.172;6.974;2023-02-03T15:52:07;8.30;99.90
52513;DHT22;38422;53.172;6.974;2023-02-03T15:54:36;8.20;99.90
52513;DHT22;38422;53.172;6.974;2023-02-03T15:57:31;8.20;99.90
52513;DHT22;38422;53.172;6.974;2023-02-03T16:02:40;8.20;99.90
52513;DHT22;38422;53.172;6.974;2023-02-03T16:05:26;8.10;99.90
52513;DHT22;38422;53.172;6.974;2023-02-03T16:07:53;8.10;99.90
52513;DHT22;38422;53.172;6.974;2023-02-03T16:10:33;8.10;99.90
52513;DHT22;38422;53.172;6.974;2023-02-03T16:13:20;8.10;99.90
52513;DHT22;38422;53.172;6.974;2023-02-03T16:15:57;8.10;99.90
52513;DHT22;38422;53.172;6.974;2023-02-03T16:18:23;8.10;99.90
52513;DHT22;38422;53.172;6.974;2023-02-03T16:20:50;8.00;99.90
52513;DHT22;38422;53.172;6.974;2023-02-03T16:23:21;8.00;99.90
52513;DHT22;38422;53.172;6.974;2023-02-03T16:28:38;8.00;99.90
52513;DHT22;38422;53.172;6.974;2023-02-03T16:31:23;8.00;99.90
52513;DHT22;38422;53.172;6.974;2023-02-03T16:34:18;7.90;99.90
52513;DHT22;38422;53.172;6.974;2023-02-03T16:37:19;7.90;99.90
52513;DHT22;38422;53.172;6.974;2023-02-03T16:40:04;7.90;99.90
52513;DHT22;38422;53.172;6.974;2023-02-03T16:42:48;7.90;99.90
52513;DHT22;38422;53.172;6.974;2023-02-03T16:45:32;7.80;99.90
52513;DHT22;38422;53.172;6.974;2023-02-03T16:48:16;7.80;99.90
52513;DHT22;38422;53.172;6.974;2023-02-03T16:51:05;7.80;99.90
52513;DHT22;38422;53.172;6.974;2023-02-03T16:53:32;7.80;99.90
52513;DHT22;38422;53.172;6.974;2023-02-03T16:56:00;7.70;99.90
52513;DHT22;38422;53.172;6.974;2023-02-03T16:58:26;7.70;99.90
52513;DHT22;38422;53.172;6.974;2023-02-03T17:00:53;7.70;99.90
52513;DHT22;38422;53.172;6.974;2023-02-03T17:03:21;7.70;99.90
52513;DHT22;38422;53.172;6.974;2023-02-03T17:05:48;7.60;99.90
52513;DHT22;38422;53.172;6.974;2023-02-03T17:08:15;7.60;99.90
52513;DHT22;38422;53.172;6.974;2023-02-03T17:10:43;7.60;99.90
52513;DHT22;38422;53.172;6.974;2023-02-03T17:13:09;7.50;99.90
52513;DHT22;38422;53.172;6.974;2023-02-03T17:15:43;7.50;99.90
52513;DHT22;38422;53.172;6.974;2023-02-03T17:18:09;7.50;99.90
52513;DHT22;38422;53.172;6.974;2023-02-03T17:20:36;7.50;99.90
52513;DHT22;38422;53.172;6.974;2023-02-03T17:23:02;7.50;99.90
52513;DHT22;38422;53.172;6.974;2023-02-03T17:25:32;7.50;99.90
52513;DHT22;38422;53.172;6.974;2023-02-03T17:27:58;7.50;99.90
52513;DHT22;38422;53.172;6.974;2023-02-03T17:30:24;7.50;99.90
52513;DHT22;38422;53.172;6.974;2023-02-03T17:32:49;7.60;99.90
52513;DHT22;38422;53.172;6.974;2023-02-03T17:35:15;7.60;99.90
52513;DHT22;38422;53.172;6.974;2023-02-03T17:37:41;7.60;99.90
52513;DHT22;38422;53.172;6.974;2023-02-03T17:40:07;7.60;99.90
52513;DHT22;38422;53.172;6.974;2023-02-03T17:42:32;7.60;99.90
52513;DHT22;38422;53.172;6.974;2023-02-03T17:44:58;7.60;99.90
52513;DHT22;38422;53.172;6.974;2023-02-03T17:47:24;7.60;99.90
52513;DHT22;38422;53.172;6.974;2023-02-03T17:49:49;7.60;99.90
52513;DHT22;38422;53.172;6.974;2023-02-03T17:52:15;7.70;99.90
52513;DHT22;38422;53.172;6.974;2023-02-03T17:54:41;7.70;99.90
52513;DHT22;38422;53.172;6.974;2023-02-03T17:57:06;7.70;99.90
52513;DHT22;38422;53.172;6.974;2023-02-03T17:59:32;7.70;99.90
52513;DHT22;38422;53.172;6.974;2023-02-03T18:02:00;7.70;99.90
52513;DHT22;38422;53.172;6.974;2023-02-03T18:04:26;7.70;99.90
52513;DHT22;38422;53.172;6.974;2023-02-03T18:06:51;7.70;99.90
52513;DHT22;38422;53.172;6.974;2023-02-03T18:09:19;7.60;99.90
52513;DHT22;38422;53.172;6.974;2023-02-03T18:11:45;7.60;99.90
52513;DHT22;38422;53.172;6.974;2023-02-03T18:14:14;7.60;99.90
52513;DHT22;38422;53.172;6.974;2023-02-03T18:16:41;7.50;99.90
52513;DHT22;38422;53.172;6.974;2023-02-03T18:19:10;7.50;99.90